createdAt,value
2019-02-26T00:01:32.127Z,7.37
2019-02-26T00:04:01.641Z,8.07
2019-02-26T00:06:31.206Z,9.40
2019-02-26T00:09:01.933Z,8.53
2019-02-26T00:11:33.389Z,9.37
2019-02-26T00:14:03.138Z,8.50
2019-02-26T00:16:35.341Z,7.90
2019-02-26T00:19:05.097Z,7.57
2019-02-26T00:21:35.024Z,8.73
2019-02-26T00:24:05.077Z,8.13
2019-02-26T00:26:36.312Z,8.07
2019-02-26T00:29:08.407Z,6.33
2019-02-26T00:31:37.951Z,6.87
2019-02-26T00:34:08.294Z,8.27
2019-02-26T00:36:38.646Z,7.40
2019-02-26T00:39:08.193Z,8.20
2019-02-26T00:41:37.615Z,7.37
2019-02-26T00:44:07.124Z,7.67
2019-02-26T00:46:37.031Z,7.80
2019-02-26T00:49:07.718Z,8.13
2019-02-26T00:51:38.995Z,8.70
2019-02-26T00:54:08.392Z,8.63
2019-02-26T00:56:38.599Z,8.03
2019-02-26T00:59:09.096Z,9.10
2019-02-26T01:01:38.535Z,9.40
2019-02-26T01:04:07.985Z,9.33
2019-02-26T01:06:37.409Z,7.93
2019-02-26T01:09:09.339Z,9.70
2019-02-26T01:11:39.027Z,8.50
2019-02-26T01:14:08.491Z,9.47
2019-02-26T01:16:39.448Z,9.80
2019-02-26T01:19:10.765Z,8.23
2019-02-26T01:21:40.211Z,7.90
2019-02-26T01:24:09.671Z,8.23
2019-02-26T01:26:42.689Z,9.53
2019-02-26T01:29:10.237Z,9.73
2019-02-26T01:31:39.666Z,9.10
2019-02-26T01:34:11.043Z,9.07
2019-02-26T01:36:42.322Z,7.90
2019-02-26T01:39:13.759Z,8.50
2019-02-26T01:41:45.457Z,8.93
2019-02-26T01:44:13.812Z,7.70
2019-02-26T01:46:43.218Z,7.93
2019-02-26T01:49:12.732Z,8.90
2019-02-26T01:51:47.482Z,8.20
2019-02-26T01:54:16.799Z,7.53
2019-02-26T01:56:46.323Z,8.40
2019-02-26T01:59:18.153Z,7.63
2019-02-26T02:01:48.917Z,7.90
2019-02-26T02:04:19.618Z,7.10
2019-02-26T02:06:49.087Z,8.00
2019-02-26T02:09:20.513Z,8.87
2019-02-26T02:11:50.489Z,6.83
2019-02-26T02:14:21.182Z,7.60
2019-02-26T02:16:50.675Z,8.70
2019-02-26T02:19:22.653Z,8.23
2019-02-26T02:21:52.178Z,8.53
2019-02-26T02:24:24.507Z,7.23
2019-02-26T02:26:55.663Z,7.10
2019-02-26T02:29:28.059Z,7.27
2019-02-26T02:31:59.438Z,7.20
2019-02-26T02:34:29.579Z,7.03
2019-02-26T02:36:58.273Z,6.47
2019-02-26T02:39:29.203Z,6.47
2019-02-26T02:41:58.701Z,6.40
2019-02-26T02:44:28.146Z,6.20
2019-02-26T02:46:58.543Z,6.30
2019-02-26T02:49:29.607Z,6.50
2019-02-26T02:52:01.471Z,5.83
2019-02-26T02:54:31.076Z,5.80
2019-02-26T02:57:02.450Z,6.23
2019-02-26T02:59:33.989Z,6.87
2019-02-26T03:02:03.030Z,6.20
2019-02-26T03:04:34.712Z,6.07
2019-02-26T03:07:04.789Z,6.83
2019-02-26T03:09:35.394Z,5.90
2019-02-26T03:12:06.279Z,6.20
2019-02-26T03:14:38.898Z,6.70
2019-02-26T03:17:09.188Z,6.73
2019-02-26T03:19:40.800Z,6.43
2019-02-26T03:22:09.771Z,8.77
2019-02-26T03:24:40.279Z,6.93
2019-02-26T03:27:09.711Z,6.53
2019-02-26T03:29:39.149Z,6.53
2019-02-26T03:32:11.604Z,6.27
2019-02-26T03:34:41.035Z,6.13
2019-02-26T03:37:11.102Z,6.47
2019-02-26T03:39:40.625Z,6.80
2019-02-26T03:42:10.575Z,5.80
2019-02-26T03:44:41.191Z,6.37
2019-02-26T03:47:10.709Z,6.17
2019-02-26T03:49:42.243Z,7.07
2019-02-26T03:52:15.339Z,6.40
2019-02-26T03:54:43.633Z,6.53
2019-02-26T03:57:14.771Z,6.40
2019-02-26T03:59:45.082Z,6.10
2019-02-26T04:02:15.329Z,6.63
2019-02-26T04:04:48.567Z,6.20
2019-02-26T04:07:16.962Z,6.40
2019-02-26T04:09:47.316Z,6.50
2019-02-26T04:12:18.439Z,6.20
2019-02-26T04:14:48.780Z,5.13
2019-02-26T04:17:18.233Z,7.63
2019-02-26T04:19:47.654Z,6.40
2019-02-26T04:22:30.570Z,7.00
2019-02-26T04:25:11.011Z,6.33
2019-02-26T04:28:05.267Z,6.27
2019-02-26T04:31:03.014Z,6.63
2019-02-26T04:33:53.194Z,6.80
2019-02-26T04:36:45.342Z,6.50
2019-02-26T04:39:36.742Z,6.47
2019-02-26T04:42:24.795Z,6.93
2019-02-26T04:45:16.148Z,5.90
2019-02-26T04:47:46.647Z,6.10
2019-02-26T04:50:16.761Z,5.70
2019-02-26T04:52:46.268Z,6.70
2019-02-26T04:55:17.277Z,7.10
2019-02-26T04:57:49.088Z,6.50
2019-02-26T05:00:17.926Z,6.80
2019-02-26T05:02:47.350Z,6.13
2019-02-26T05:05:16.908Z,6.97
2019-02-26T05:07:47.084Z,6.97
2019-02-26T05:10:17.571Z,6.50
2019-02-26T05:12:47.034Z,7.37
2019-02-26T05:15:19.809Z,7.67
2019-02-26T05:17:47.699Z,6.77
2019-02-26T05:20:19.012Z,6.53
2019-02-26T05:22:48.260Z,6.53
2019-02-26T05:25:19.793Z,6.43
2019-02-26T05:27:50.845Z,6.83
2019-02-26T05:30:22.329Z,6.90
2019-02-26T05:32:52.014Z,7.13
2019-02-26T05:35:23.362Z,6.90
2019-02-26T05:37:55.508Z,7.03
2019-02-26T05:40:24.617Z,6.23
2019-02-26T05:42:56.129Z,7.57
2019-02-26T05:45:26.557Z,7.17
2019-02-26T05:47:58.806Z,7.53
2019-02-26T05:50:30.191Z,7.50
2019-02-26T05:53:01.935Z,7.50
2019-02-26T05:55:30.361Z,7.90
2019-02-26T05:57:59.802Z,6.90
2019-02-26T06:00:33.369Z,7.37
2019-02-26T06:03:03.589Z,7.60
2019-02-26T06:05:33.021Z,7.47
2019-02-26T06:08:02.594Z,6.67
2019-02-26T06:10:32.647Z,7.70
2019-02-26T06:13:02.797Z,7.50
2019-02-26T06:15:34.193Z,7.33
2019-02-26T06:18:03.735Z,7.27
2019-02-26T06:20:34.523Z,7.80
2019-02-26T06:23:04.397Z,6.77
2019-02-26T06:25:33.968Z,7.53
2019-02-26T06:28:06.930Z,7.13
2019-02-26T06:30:34.588Z,7.87
2019-02-26T06:33:04.835Z,8.30
2019-02-26T06:35:36.035Z,7.23
2019-02-26T06:38:07.401Z,7.57
2019-02-26T06:40:39.322Z,8.33
2019-02-26T06:43:08.728Z,7.93
2019-02-26T06:45:40.316Z,8.33
2019-02-26T06:48:12.559Z,8.50
2019-02-26T06:50:41.581Z,8.33
2019-02-26T06:53:13.741Z,8.77
2019-02-26T06:55:43.096Z,11.40
2019-02-26T06:58:19.066Z,8.60
2019-02-26T07:00:52.567Z,11.60
2019-02-26T07:03:19.787Z,11.30
2019-02-26T07:05:49.226Z,10.50
2019-02-26T07:08:19.414Z,7.00
2019-02-26T07:10:49.970Z,6.93
2019-02-26T07:13:19.496Z,6.93
2019-02-26T07:15:48.951Z,8.07
2019-02-26T07:18:19.632Z,6.87
2019-02-26T07:20:52.043Z,8.27
2019-02-26T07:23:20.347Z,7.10
2019-02-26T07:25:49.797Z,9.37
2019-02-26T07:28:20.617Z,7.40
2019-02-26T07:30:50.409Z,7.83
2019-02-26T07:33:19.860Z,7.47
2019-02-26T07:35:49.364Z,7.10
2019-02-26T07:38:20.669Z,7.30
2019-02-26T07:40:49.996Z,6.60
2019-02-26T07:43:19.952Z,7.80
2019-02-26T07:45:51.394Z,8.03
2019-02-26T07:48:23.581Z,7.30
2019-02-26T07:50:52.138Z,7.33
2019-02-26T07:53:22.711Z,6.83
2019-02-26T07:55:52.786Z,7.70
2019-02-26T07:58:22.395Z,7.20
2019-02-26T08:00:52.292Z,8.80
2019-02-26T08:03:24.188Z,8.83
2019-02-26T08:05:53.031Z,8.27
2019-02-26T08:08:22.559Z,9.10
2019-02-26T08:10:53.111Z,9.23
2019-02-26T08:13:24.364Z,10.53
2019-02-26T08:15:55.128Z,9.93
2019-02-26T08:18:27.768Z,9.50
2019-02-26T08:20:59.773Z,10.87
2019-02-26T08:23:28.390Z,9.77
2019-02-26T08:26:00.462Z,10.97
2019-02-26T08:28:29.210Z,10.17
2019-02-26T08:30:58.718Z,8.67
2019-02-26T08:33:28.154Z,9.60
2019-02-26T08:35:57.674Z,9.30
2019-02-26T08:38:29.429Z,8.87
2019-02-26T08:40:58.256Z,10.43
2019-02-26T08:43:27.709Z,8.33
2019-02-26T08:45:57.144Z,9.50
2019-02-26T08:48:27.098Z,9.10
2019-02-26T08:51:00.885Z,9.33
2019-02-26T08:53:28.962Z,9.07
2019-02-26T08:56:01.407Z,10.13
2019-02-26T08:58:30.504Z,11.23
2019-02-26T09:00:59.929Z,9.67
2019-02-26T09:03:29.377Z,10.97
2019-02-26T09:06:10.867Z,11.47
2019-02-26T09:08:31.290Z,10.50
2019-02-26T09:11:03.349Z,10.87
2019-02-26T09:13:35.727Z,10.70
2019-02-26T09:16:05.555Z,10.30
2019-02-26T09:18:36.159Z,9.67
2019-02-26T09:21:07.167Z,9.67
2019-02-26T09:23:36.788Z,9.17
2019-02-26T09:26:07.012Z,9.67
2019-02-26T09:28:36.618Z,9.93
2019-02-26T09:31:06.790Z,10.57
2019-02-26T09:33:38.679Z,10.23
2019-02-26T09:36:10.530Z,9.07
2019-02-26T09:38:41.790Z,11.30
2019-02-26T09:41:11.766Z,9.50
2019-02-26T09:43:43.377Z,9.47
2019-02-26T09:46:16.224Z,9.70
2019-02-26T09:48:45.349Z,10.70
2019-02-26T09:51:16.621Z,9.60
2019-02-26T09:53:47.238Z,10.10
2019-02-26T09:56:17.519Z,10.30
2019-02-26T09:58:48.380Z,9.97
2019-02-26T10:01:18.176Z,9.67
2019-02-26T10:03:47.624Z,9.90
2019-02-26T10:06:19.259Z,10.27
2019-02-26T10:08:48.943Z,9.93
2019-02-26T10:11:21.242Z,9.73
2019-02-26T10:13:51.178Z,9.43
2019-02-26T10:16:21.720Z,10.17
2019-02-26T10:18:54.287Z,10.57
2019-02-26T10:21:23.031Z,10.20
2019-02-26T10:23:54.197Z,11.10
2019-02-26T10:26:26.096Z,10.67
2019-02-26T10:29:03.214Z,9.93
2019-02-26T10:31:27.616Z,11.23
2019-02-26T10:33:57.279Z,10.17
2019-02-26T10:36:30.336Z,11.20
2019-02-26T10:39:00.252Z,15.27
2019-02-26T10:41:28.965Z,10.13
2019-02-26T10:43:58.403Z,9.87
2019-02-26T10:46:29.376Z,9.60
2019-02-26T10:48:59.000Z,10.20
2019-02-26T10:51:28.431Z,9.07
2019-02-26T10:53:59.943Z,9.10
2019-02-26T10:56:30.783Z,12.00
2019-02-26T10:59:03.494Z,12.07
2019-02-26T11:01:33.673Z,13.27
2019-02-26T11:04:04.480Z,30.93
2019-02-26T11:06:38.277Z,12.07
2019-02-26T11:09:09.649Z,12.27
2019-02-26T11:11:39.966Z,13.40
2019-02-26T11:14:13.356Z,16.30
2019-02-26T11:16:41.861Z,16.43
2019-02-26T11:19:13.570Z,27.43
2019-02-26T11:21:43.045Z,15.33
2019-02-26T11:24:12.601Z,16.20
2019-02-26T11:26:43.877Z,27.27
2019-02-26T11:29:16.016Z,19.40
2019-02-26T11:31:47.729Z,13.83
2019-02-26T11:34:16.815Z,19.20
2019-02-26T11:36:46.440Z,20.40
2019-02-26T11:39:16.587Z,12.97
2019-02-26T11:41:48.158Z,15.43
2019-02-26T11:44:22.550Z,16.77
2019-02-26T11:46:51.219Z,13.53
2019-02-26T11:49:21.665Z,13.77
2019-02-26T11:51:50.957Z,14.13
2019-02-26T11:54:20.446Z,14.40
2019-02-26T11:56:52.407Z,17.17
2019-02-26T11:59:21.300Z,15.03
2019-02-26T12:01:50.826Z,14.23
2019-02-26T12:04:20.428Z,11.68
2019-02-26T12:06:49.935Z,10.10
2019-02-26T12:09:19.533Z,9.90
2019-02-26T12:11:49.219Z,9.53
2019-02-26T12:14:19.477Z,10.70
2019-02-26T12:16:49.910Z,9.57
2019-02-26T12:19:19.373Z,8.93
2019-02-26T12:21:49.505Z,8.97
2019-02-26T12:24:24.181Z,8.53
2019-02-26T12:26:54.689Z,8.23
2019-02-26T12:29:25.902Z,8.33
2019-02-26T12:31:55.718Z,8.00
2019-02-26T12:34:26.571Z,8.13
2019-02-26T12:36:57.217Z,8.37
2019-02-26T12:39:29.235Z,8.87
2019-02-26T12:41:58.363Z,7.60
2019-02-26T12:44:28.977Z,6.90
2019-02-26T12:47:00.371Z,6.27
2019-02-26T12:49:32.607Z,5.17
2019-02-26T12:52:03.337Z,5.53
2019-02-26T12:54:37.782Z,6.77
2019-02-26T12:57:06.512Z,5.50
2019-02-26T12:59:36.066Z,6.07
2019-02-26T13:02:09.340Z,5.70
2019-02-26T13:04:37.811Z,5.17
2019-02-26T13:07:09.267Z,4.67
2019-02-26T13:09:46.070Z,4.77
2019-02-26T13:12:12.632Z,5.13
2019-02-26T13:14:41.284Z,7.40
2019-02-26T13:17:13.663Z,5.47
2019-02-26T13:19:41.839Z,5.10
2019-02-26T13:22:16.891Z,5.30
2019-02-26T13:24:42.584Z,5.87
2019-02-26T13:27:12.027Z,5.60
2019-02-26T13:29:47.577Z,5.63
2019-02-26T13:32:16.860Z,5.53
2019-02-26T13:34:43.788Z,5.50
2019-02-26T13:37:13.306Z,5.10
2019-02-26T13:39:45.404Z,6.20
2019-02-26T13:42:18.889Z,5.93
2019-02-26T13:44:45.287Z,6.40
2019-02-26T13:47:14.817Z,6.30
2019-02-26T13:49:44.239Z,7.07
2019-02-26T13:52:13.855Z,6.30
2019-02-26T13:54:43.372Z,7.62
2019-02-26T13:57:12.821Z,7.57
2019-02-26T13:59:42.331Z,42.07
2019-02-26T14:02:11.792Z,44.97
2019-02-26T14:04:41.208Z,39.37
2019-02-26T14:07:10.674Z,33.17
2019-02-26T14:09:40.117Z,17.23
2019-02-26T14:12:09.666Z,13.07
2019-02-26T14:14:39.114Z,15.63
2019-02-26T14:17:08.553Z,27.07
2019-02-26T14:19:38.063Z,22.33
2019-02-26T14:22:07.616Z,15.40
2019-02-26T14:24:38.640Z,18.97
2019-02-26T14:27:08.244Z,15.90
2019-02-26T14:29:37.850Z,17.30
2019-02-26T14:32:07.396Z,14.40
2019-02-26T14:34:37.915Z,17.10
2019-02-26T14:37:07.515Z,9.73
2019-02-26T14:39:37.003Z,10.17
2019-02-26T14:42:06.556Z,9.20
2019-02-26T14:44:36.171Z,9.93
2019-02-26T14:47:05.953Z,10.30
2019-02-26T14:49:35.485Z,15.30
2019-02-26T14:52:04.988Z,11.13
2019-02-26T14:54:34.515Z,10.70
2019-02-26T14:57:04.068Z,11.30
2019-02-26T14:59:33.557Z,10.33
2019-02-26T15:02:03.081Z,9.27
2019-02-26T15:04:32.562Z,9.00
2019-02-26T15:07:02.115Z,9.60
2019-02-26T15:09:31.963Z,8.27
2019-02-26T15:12:01.500Z,8.40
2019-02-26T15:14:30.989Z,7.83
2019-02-26T15:17:00.676Z,9.90
2019-02-26T15:19:30.207Z,8.57
2019-02-26T15:21:59.746Z,9.10
2019-02-26T15:24:29.227Z,10.30
2019-02-26T15:26:58.740Z,11.03
2019-02-26T15:29:28.223Z,37.43
2019-02-26T15:31:57.800Z,51.30
2019-02-26T15:34:27.374Z,29.67
2019-02-26T15:36:57.878Z,13.87
2019-02-26T15:39:27.475Z,25.60
2019-02-26T15:41:56.932Z,29.27
2019-02-26T15:44:28.832Z,17.83
2019-02-26T15:47:01.975Z,19.03
2019-02-26T15:49:28.928Z,44.40
2019-02-26T15:51:58.475Z,16.73
2019-02-26T15:54:28.157Z,20.67
2019-02-26T15:57:00.468Z,17.17
2019-02-26T15:59:29.950Z,31.20
2019-02-26T16:01:59.394Z,8.20
2019-02-26T16:04:28.824Z,6.17
2019-02-26T16:06:58.593Z,7.10
2019-02-26T16:09:30.964Z,6.53
2019-02-26T16:12:00.468Z,6.27
2019-02-26T16:14:30.198Z,7.57
2019-02-26T16:17:02.702Z,6.57
2019-02-26T16:19:32.127Z,7.67
2019-02-26T16:22:01.658Z,6.37
2019-02-26T16:24:31.093Z,6.90
2019-02-26T16:27:00.631Z,7.03
2019-02-26T16:29:30.447Z,7.17
2019-02-26T16:32:02.720Z,6.50
2019-02-26T16:34:35.082Z,6.30
2019-02-26T16:37:07.235Z,7.73
2019-02-26T16:39:35.874Z,6.80
2019-02-26T16:42:05.375Z,6.87
2019-02-26T16:44:35.063Z,5.20
2019-02-26T16:47:05.288Z,6.47
2019-02-26T16:49:34.981Z,5.60
2019-02-26T16:52:05.032Z,5.30
2019-02-26T16:54:34.444Z,5.00
2019-02-26T16:57:03.895Z,5.40
2019-02-26T16:59:33.400Z,5.87
2019-02-26T17:02:03.020Z,5.73
2019-02-26T17:04:32.779Z,6.13
2019-02-26T17:07:02.216Z,6.03
2019-02-26T17:09:31.743Z,7.20
2019-02-26T17:12:01.204Z,6.20
2019-02-26T17:14:30.673Z,6.20
2019-02-26T17:17:01.555Z,6.33
2019-02-26T17:19:31.439Z,8.77
2019-02-26T17:22:01.841Z,7.93
2019-02-26T17:24:32.263Z,7.90
2019-02-26T17:27:03.477Z,7.67
2019-02-26T17:29:33.245Z,7.47
2019-02-26T17:32:04.862Z,6.97
2019-02-26T17:34:34.500Z,7.20
2019-02-26T17:37:04.135Z,6.63
2019-02-26T17:39:35.260Z,6.70
2019-02-26T17:42:05.080Z,7.37
2019-02-26T17:44:35.669Z,8.20
2019-02-26T17:47:05.265Z,10.33
2019-02-26T17:49:37.862Z,10.23
2019-02-26T17:52:07.323Z,10.00
2019-02-26T17:54:36.976Z,9.07
2019-02-26T17:57:06.937Z,10.20
2019-02-26T17:59:36.415Z,9.87
2019-02-26T18:02:06.226Z,7.50
2019-02-26T18:04:35.723Z,7.92
2019-02-26T18:07:05.240Z,6.90
2019-02-26T18:09:35.083Z,6.77
2019-02-26T18:12:04.580Z,6.47
2019-02-26T18:14:34.081Z,8.27
2019-02-26T18:17:03.608Z,7.00
2019-02-26T18:19:33.095Z,9.40
2019-02-26T18:22:02.600Z,13.87
2019-02-26T18:24:32.100Z,9.43
2019-02-26T18:27:01.626Z,11.97
2019-02-26T18:29:31.088Z,12.13
2019-02-26T18:32:01.140Z,9.37
2019-02-26T18:34:30.712Z,9.40
2019-02-26T18:37:00.199Z,8.60
2019-02-26T18:39:30.210Z,8.37
2019-02-26T18:41:59.703Z,8.63
2019-02-26T18:44:29.229Z,8.77
2019-02-26T18:46:58.822Z,10.07
2019-02-26T18:49:28.417Z,8.97
2019-02-26T18:51:57.950Z,9.70
2019-02-26T18:54:27.465Z,8.67
2019-02-26T18:56:57.125Z,9.50
2019-02-26T18:59:26.589Z,8.53
2019-02-26T19:01:56.179Z,8.83
2019-02-26T19:04:25.820Z,8.43
2019-02-26T19:06:59.412Z,9.20
2019-02-26T19:09:27.792Z,8.50
2019-02-26T19:11:57.783Z,8.63
2019-02-26T19:14:30.564Z,9.80
2019-02-26T19:17:00.025Z,8.37
2019-02-26T19:19:29.492Z,8.30
2019-02-26T19:21:59.072Z,8.27
2019-02-26T19:24:28.545Z,7.07
2019-02-26T19:26:58.178Z,8.43
2019-02-26T19:29:31.166Z,9.23
2019-02-26T19:31:58.955Z,8.70
2019-02-26T19:34:29.047Z,7.67
2019-02-26T19:36:58.949Z,7.13
2019-02-26T19:39:28.634Z,7.77
2019-02-26T19:41:59.493Z,8.20
2019-02-26T19:44:29.305Z,9.57
2019-02-26T19:46:58.962Z,8.83
2019-02-26T19:49:28.642Z,9.57
2019-02-26T19:51:58.201Z,8.17
2019-02-26T19:54:27.965Z,8.43
2019-02-26T19:56:57.768Z,9.00
2019-02-26T19:59:27.329Z,10.27
2019-02-26T20:01:59.021Z,9.37
2019-02-26T20:04:28.032Z,13.87
2019-02-26T20:06:58.587Z,12.13
2019-02-26T20:09:28.740Z,12.70
2019-02-26T20:11:58.440Z,13.73
2019-02-26T20:14:28.248Z,9.70
2019-02-26T20:16:57.846Z,9.93
2019-02-26T20:19:31.639Z,10.97
2019-02-26T20:21:58.890Z,8.13
2019-02-26T20:24:28.489Z,9.80
2019-02-26T20:27:00.006Z,10.40
2019-02-26T20:29:29.686Z,8.57
2019-02-26T20:31:59.208Z,8.83
2019-02-26T20:34:28.819Z,9.50
2019-02-26T20:36:58.436Z,11.27
2019-02-26T20:39:28.004Z,8.80
2019-02-26T20:41:57.542Z,10.37
2019-02-26T20:44:27.246Z,8.87
2019-02-26T20:46:58.670Z,9.10
2019-02-26T20:49:28.576Z,8.10
2019-02-26T20:51:59.660Z,8.50
2019-02-26T20:54:29.547Z,9.10
2019-02-26T20:57:05.707Z,9.93
2019-02-26T20:59:35.319Z,10.83
2019-02-26T21:02:04.779Z,12.70
2019-02-26T21:04:34.237Z,11.70
2019-02-26T21:07:03.675Z,11.00
2019-02-26T21:09:33.144Z,10.60
2019-02-26T21:12:02.674Z,9.90
2019-02-26T21:14:32.257Z,9.70
2019-02-26T21:17:01.714Z,10.10
2019-02-26T21:19:31.184Z,9.77
2019-02-26T21:22:00.606Z,9.50
2019-02-26T21:24:31.914Z,7.20
2019-02-26T21:27:01.175Z,8.83
2019-02-26T21:29:30.700Z,10.67
2019-02-26T21:32:00.142Z,12.93
2019-02-26T21:34:29.881Z,11.37
2019-02-26T21:37:00.096Z,10.83
2019-02-26T21:39:30.182Z,9.50
2019-02-26T21:41:59.767Z,8.33
2019-02-26T21:44:29.199Z,8.70
2019-02-26T21:46:58.728Z,10.20
2019-02-26T21:49:28.186Z,9.47
2019-02-26T21:51:57.693Z,9.63
2019-02-26T21:54:27.155Z,9.80
2019-02-26T21:56:56.590Z,9.83
2019-02-26T21:59:26.085Z,9.53
2019-02-26T22:01:55.544Z,9.07
2019-02-26T22:04:24.993Z,9.73
2019-02-26T22:06:54.418Z,8.67
2019-02-26T22:09:23.881Z,9.03
2019-02-26T22:11:53.520Z,9.27
2019-02-26T22:14:23.085Z,8.43
2019-02-26T22:16:52.631Z,9.30
2019-02-26T22:19:22.210Z,9.70
2019-02-26T22:21:52.747Z,9.20
2019-02-26T22:24:22.491Z,9.03
2019-02-26T22:26:52.111Z,8.57
2019-02-26T22:29:21.679Z,9.17
2019-02-26T22:31:51.254Z,8.63
2019-02-26T22:34:20.839Z,9.53
2019-02-26T22:36:50.398Z,8.13
2019-02-26T22:39:22.605Z,8.87
2019-02-26T22:41:54.203Z,9.00
2019-02-26T22:44:23.784Z,7.90
2019-02-26T22:46:53.326Z,8.27
2019-02-26T22:49:22.991Z,7.97
2019-02-26T22:51:52.510Z,9.03
2019-02-26T22:54:22.095Z,7.83
2019-02-26T22:56:51.660Z,8.20
2019-02-26T22:59:21.248Z,8.73
2019-02-26T23:01:51.105Z,9.03
2019-02-26T23:04:20.659Z,8.70
2019-02-26T23:06:50.235Z,9.90
2019-02-26T23:09:23.361Z,10.17
2019-02-26T23:11:53.019Z,11.23
2019-02-26T23:14:22.868Z,10.83
2019-02-26T23:16:52.692Z,10.23
2019-02-26T23:19:22.647Z,12.53
2019-02-26T23:21:52.202Z,10.70
2019-02-26T23:24:21.771Z,11.13
2019-02-26T23:26:51.415Z,11.03
2019-02-26T23:29:21.058Z,10.50
2019-02-26T23:31:50.612Z,11.10
2019-02-26T23:34:22.599Z,9.90
2019-02-26T23:36:51.412Z,9.30
2019-02-26T23:39:21.064Z,8.27
2019-02-26T23:41:50.624Z,8.30
2019-02-26T23:44:20.171Z,8.80
2019-02-26T23:46:52.689Z,8.60
2019-02-26T23:49:22.221Z,9.17
2019-02-26T23:51:53.721Z,8.73
2019-02-26T23:54:23.020Z,9.33
2019-02-26T23:56:52.739Z,9.53
2019-02-26T23:59:22.426Z,8.87
